sensor_id;sensor_type;location;lat;lon;timestamp;P1;durP1;ratioP1;P2;durP2;ratioP2
23555;SDS011;11956;53.184;8.578;2023-04-24T00:02:44;5.13;;;4.00;;
23555;SDS011;11956;53.184;8.578;2023-04-24T00:05:48;4.50;;;3.95;;
23555;SDS011;11956;53.184;8.578;2023-04-24T00:08:49;4.90;;;4.40;;
23555;SDS011;11956;53.184;8.578;2023-04-24T00:11:50;4.75;;;3.90;;
23555;SDS011;11956;53.184;8.578;2023-04-24T00:14:51;3.80;;;3.33;;
23555;SDS011;11956;53.184;8.578;2023-04-24T00:17:53;4.20;;;3.72;;
23555;SDS011;11956;53.184;8.578;2023-04-24T00:20:54;6.28;;;4.25;;
23555;SDS011;11956;53.184;8.578;2023-04-24T00:23:55;4.03;;;3.40;;
23555;SDS011;11956;53.184;8.578;2023-04-24T00:26:56;4.80;;;3.55;;
23555;SDS011;11956;53.184;8.578;2023-04-24T00:29:57;2.97;;;2.72;;
23555;SDS011;11956;53.184;8.578;2023-04-24T00:32:58;4.28;;;3.88;;
23555;SDS011;11956;53.184;8.578;2023-04-24T00:35:59;5.13;;;3.42;;
23555;SDS011;11956;53.184;8.578;2023-04-24T00:39:00;2.70;;;2.35;;
23555;SDS011;11956;53.184;8.578;2023-04-24T00:42:01;1.60;;;1.50;;
23555;SDS011;11956;53.184;8.578;2023-04-24T00:45:02;2.47;;;1.75;;
23555;SDS011;11956;53.184;8.578;2023-04-24T00:48:03;2.22;;;1.80;;
23555;SDS011;11956;53.184;8.578;2023-04-24T00:51:04;1.75;;;1.65;;
23555;SDS011;11956;53.184;8.578;2023-04-24T00:54:05;1.70;;;1.58;;
23555;SDS011;11956;53.184;8.578;2023-04-24T00:57:06;2.13;;;1.90;;
23555;SDS011;11956;53.184;8.578;2023-04-24T01:00:07;1.70;;;1.60;;
23555;SDS011;11956;53.184;8.578;2023-04-24T01:03:10;1.58;;;1.48;;
23555;SDS011;11956;53.184;8.578;2023-04-24T01:06:11;1.40;;;1.30;;
23555;SDS011;11956;53.184;8.578;2023-04-24T01:09:13;1.40;;;1.30;;
23555;SDS011;11956;53.184;8.578;2023-04-24T01:12:14;1.55;;;1.45;;
23555;SDS011;11956;53.184;8.578;2023-04-24T01:18:20;1.65;;;1.55;;
23555;SDS011;11956;53.184;8.578;2023-04-24T01:21:23;1.60;;;1.50;;
23555;SDS011;11956;53.184;8.578;2023-04-24T01:24:31;2.45;;;1.60;;
23555;SDS011;11956;53.184;8.578;2023-04-24T01:27:32;1.85;;;1.75;;
23555;SDS011;11956;53.184;8.578;2023-04-24T01:30:33;2.00;;;1.80;;
23555;SDS011;11956;53.184;8.578;2023-04-24T01:33:34;2.78;;;1.75;;
23555;SDS011;11956;53.184;8.578;2023-04-24T01:36:35;2.80;;;1.90;;
23555;SDS011;11956;53.184;8.578;2023-04-24T01:39:36;2.15;;;2.00;;
23555;SDS011;11956;53.184;8.578;2023-04-24T01:42:37;2.30;;;1.90;;
23555;SDS011;11956;53.184;8.578;2023-04-24T01:45:38;3.22;;;1.95;;
23555;SDS011;11956;53.184;8.578;2023-04-24T01:48:39;2.05;;;1.90;;
23555;SDS011;11956;53.184;8.578;2023-04-24T01:51:41;2.00;;;1.90;;
23555;SDS011;11956;53.184;8.578;2023-04-24T01:54:42;1.92;;;1.83;;
23555;SDS011;11956;53.184;8.578;2023-04-24T01:57:43;1.70;;;1.60;;
23555;SDS011;11956;53.184;8.578;2023-04-24T02:00:44;2.72;;;1.95;;
23555;SDS011;11956;53.184;8.578;2023-04-24T02:03:45;2.15;;;1.80;;
23555;SDS011;11956;53.184;8.578;2023-04-24T02:06:46;4.85;;;1.90;;
23555;SDS011;11956;53.184;8.578;2023-04-24T02:09:46;1.80;;;1.70;;
23555;SDS011;11956;53.184;8.578;2023-04-24T02:12:48;2.10;;;1.92;;
23555;SDS011;11956;53.184;8.578;2023-04-24T02:15:49;2.17;;;1.70;;
23555;SDS011;11956;53.184;8.578;2023-04-24T02:18:50;3.15;;;2.25;;
23555;SDS011;11956;53.184;8.578;2023-04-24T02:21:51;2.25;;;2.00;;
23555;SDS011;11956;53.184;8.578;2023-04-24T02:24:52;2.47;;;2.28;;
23555;SDS011;11956;53.184;8.578;2023-04-24T02:27:53;2.42;;;2.25;;
23555;SDS011;11956;53.184;8.578;2023-04-24T02:30:53;2.97;;;2.42;;
23555;SDS011;11956;53.184;8.578;2023-04-24T02:33:56;2.85;;;2.22;;
23555;SDS011;11956;53.184;8.578;2023-04-24T02:36:57;3.45;;;2.58;;
23555;SDS011;11956;53.184;8.578;2023-04-24T02:39:58;2.45;;;2.25;;
23555;SDS011;11956;53.184;8.578;2023-04-24T02:42:58;2.58;;;2.38;;
23555;SDS011;11956;53.184;8.578;2023-04-24T02:45:59;3.40;;;1.98;;
23555;SDS011;11956;53.184;8.578;2023-04-24T02:49:00;2.80;;;2.08;;
23555;SDS011;11956;53.184;8.578;2023-04-24T02:52:01;2.13;;;2.03;;
23555;SDS011;11956;53.184;8.578;2023-04-24T02:55:02;2.38;;;2.20;;
23555;SDS011;11956;53.184;8.578;2023-04-24T02:58:04;3.70;;;3.40;;
23555;SDS011;11956;53.184;8.578;2023-04-24T03:01:06;3.70;;;3.40;;
23555;SDS011;11956;53.184;8.578;2023-04-24T03:04:06;5.07;;;4.50;;
23555;SDS011;11956;53.184;8.578;2023-04-24T03:07:07;5.35;;;4.95;;
23555;SDS011;11956;53.184;8.578;2023-04-24T03:10:08;6.18;;;5.45;;
23555;SDS011;11956;53.184;8.578;2023-04-24T03:13:10;6.40;;;5.88;;
23555;SDS011;11956;53.184;8.578;2023-04-24T03:16:10;5.90;;;5.40;;
23555;SDS011;11956;53.184;8.578;2023-04-24T03:19:11;5.80;;;5.20;;
23555;SDS011;11956;53.184;8.578;2023-04-24T03:22:23;6.07;;;5.57;;
23555;SDS011;11956;53.184;8.578;2023-04-24T03:25:25;6.60;;;5.72;;
23555;SDS011;11956;53.184;8.578;2023-04-24T03:28:26;6.13;;;5.60;;
23555;SDS011;11956;53.184;8.578;2023-04-24T03:31:36;6.50;;;5.90;;
23555;SDS011;11956;53.184;8.578;2023-04-24T03:34:37;6.50;;;5.90;;
23555;SDS011;11956;53.184;8.578;2023-04-24T03:37:39;6.32;;;5.72;;
23555;SDS011;11956;53.184;8.578;2023-04-24T03:40:58;6.35;;;5.75;;
23555;SDS011;11956;53.184;8.578;2023-04-24T03:44:28;5.93;;;5.43;;
23555;SDS011;11956;53.184;8.578;2023-04-24T03:47:29;5.82;;;5.30;;
23555;SDS011;11956;53.184;8.578;2023-04-24T03:50:34;5.93;;;5.43;;
23555;SDS011;11956;53.184;8.578;2023-04-24T03:53:35;6.18;;;5.20;;
23555;SDS011;11956;53.184;8.578;2023-04-24T03:56:36;5.47;;;4.97;;
23555;SDS011;11956;53.184;8.578;2023-04-24T03:59:37;7.97;;;5.20;;
23555;SDS011;11956;53.184;8.578;2023-04-24T04:02:47;5.60;;;5.10;;
23555;SDS011;11956;53.184;8.578;2023-04-24T04:05:48;5.82;;;5.28;;
23555;SDS011;11956;53.184;8.578;2023-04-24T04:08:49;6.30;;;5.75;;
23555;SDS011;11956;53.184;8.578;2023-04-24T04:11:50;6.40;;;5.60;;
23555;SDS011;11956;53.184;8.578;2023-04-24T04:14:51;6.55;;;5.95;;
23555;SDS011;11956;53.184;8.578;2023-04-24T04:17:52;6.60;;;6.00;;
23555;SDS011;11956;53.184;8.578;2023-04-24T04:20:53;7.10;;;6.32;;
23555;SDS011;11956;53.184;8.578;2023-04-24T04:23:55;6.40;;;5.80;;
23555;SDS011;11956;53.184;8.578;2023-04-24T04:27:06;7.32;;;6.15;;
23555;SDS011;11956;53.184;8.578;2023-04-24T04:30:16;8.13;;;6.53;;
23555;SDS011;11956;53.184;8.578;2023-04-24T04:33:27;6.35;;;5.85;;
23555;SDS011;11956;53.184;8.578;2023-04-24T04:36:28;6.85;;;6.03;;
23555;SDS011;11956;53.184;8.578;2023-04-24T04:39:36;8.05;;;6.38;;
23555;SDS011;11956;53.184;8.578;2023-04-24T04:42:40;7.57;;;6.65;;
23555;SDS011;11956;53.184;8.578;2023-04-24T04:45:42;7.63;;;6.13;;
23555;SDS011;11956;53.184;8.578;2023-04-24T04:49:05;7.25;;;6.55;;
23555;SDS011;11956;53.184;8.578;2023-04-24T04:52:06;6.32;;;5.72;;
23555;SDS011;11956;53.184;8.578;2023-04-24T04:55:07;8.90;;;5.93;;
23555;SDS011;11956;53.184;8.578;2023-04-24T04:58:28;7.05;;;6.15;;
23555;SDS011;11956;53.184;8.578;2023-04-24T05:01:34;6.22;;;5.60;;
23555;SDS011;11956;53.184;8.578;2023-04-24T05:04:35;6.55;;;5.63;;
23555;SDS011;11956;53.184;8.578;2023-04-24T05:07:36;8.55;;;5.70;;
23555;SDS011;11956;53.184;8.578;2023-04-24T05:10:38;6.60;;;5.18;;
23555;SDS011;11956;53.184;8.578;2023-04-24T05:13:40;5.70;;;5.10;;
23555;SDS011;11956;53.184;8.578;2023-04-24T05:16:46;6.35;;;4.85;;
23555;SDS011;11956;53.184;8.578;2023-04-24T05:19:49;7.78;;;5.50;;
23555;SDS011;11956;53.184;8.578;2023-04-24T05:22:51;5.45;;;4.95;;
23555;SDS011;11956;53.184;8.578;2023-04-24T05:25:54;8.00;;;5.55;;
23555;SDS011;11956;53.184;8.578;2023-04-24T05:28:55;7.35;;;5.53;;
23555;SDS011;11956;53.184;8.578;2023-04-24T05:31:56;6.57;;;5.05;;
23555;SDS011;11956;53.184;8.578;2023-04-24T05:34:58;6.80;;;5.35;;
23555;SDS011;11956;53.184;8.578;2023-04-24T05:37:59;6.72;;;5.57;;
23555;SDS011;11956;53.184;8.578;2023-04-24T05:41:01;6.47;;;5.38;;
23555;SDS011;11956;53.184;8.578;2023-04-24T05:44:01;6.10;;;5.50;;
23555;SDS011;11956;53.184;8.578;2023-04-24T05:47:02;10.23;;;5.80;;
23555;SDS011;11956;53.184;8.578;2023-04-24T05:50:04;9.02;;;5.90;;
23555;SDS011;11956;53.184;8.578;2023-04-24T05:53:06;6.90;;;5.22;;
23555;SDS011;11956;53.184;8.578;2023-04-24T05:56:09;7.47;;;5.88;;
23555;SDS011;11956;53.184;8.578;2023-04-24T05:59:10;6.38;;;5.43;;
23555;SDS011;11956;53.184;8.578;2023-04-24T06:02:11;8.57;;;5.38;;
23555;SDS011;11956;53.184;8.578;2023-04-24T06:05:12;8.32;;;6.10;;
23555;SDS011;11956;53.184;8.578;2023-04-24T06:08:14;7.13;;;5.75;;
23555;SDS011;11956;53.184;8.578;2023-04-24T06:11:17;10.40;;;5.75;;
23555;SDS011;11956;53.184;8.578;2023-04-24T06:14:18;7.70;;;5.80;;
23555;SDS011;11956;53.184;8.578;2023-04-24T06:17:38;7.38;;;5.72;;
23555;SDS011;11956;53.184;8.578;2023-04-24T06:20:40;7.65;;;5.65;;
23555;SDS011;11956;53.184;8.578;2023-04-24T06:23:43;6.57;;;5.90;;
23555;SDS011;11956;53.184;8.578;2023-04-24T06:26:46;8.60;;;5.78;;
23555;SDS011;11956;53.184;8.578;2023-04-24T06:29:47;7.68;;;5.95;;
23555;SDS011;11956;53.184;8.578;2023-04-24T06:32:54;9.30;;;6.32;;
23555;SDS011;11956;53.184;8.578;2023-04-24T06:35:55;9.07;;;6.72;;
23555;SDS011;11956;53.184;8.578;2023-04-24T06:38:56;7.10;;;6.03;;
23555;SDS011;11956;53.184;8.578;2023-04-24T06:41:58;7.55;;;6.60;;
23555;SDS011;11956;53.184;8.578;2023-04-24T06:44:59;9.23;;;6.30;;
23555;SDS011;11956;53.184;8.578;2023-04-24T06:47:59;9.80;;;7.15;;
23555;SDS011;11956;53.184;8.578;2023-04-24T06:51:00;9.18;;;6.85;;
23555;SDS011;11956;53.184;8.578;2023-04-24T06:54:01;8.70;;;7.50;;
23555;SDS011;11956;53.184;8.578;2023-04-24T06:57:02;8.23;;;7.22;;
23555;SDS011;11956;53.184;8.578;2023-04-24T07:00:04;12.38;;;7.82;;
23555;SDS011;11956;53.184;8.578;2023-04-24T07:03:06;10.07;;;8.05;;
23555;SDS011;11956;53.184;8.578;2023-04-24T07:06:07;10.18;;;8.10;;
23555;SDS011;11956;53.184;8.578;2023-04-24T07:09:10;8.80;;;7.87;;
23555;SDS011;11956;53.184;8.578;2023-04-24T07:12:11;13.05;;;8.50;;
23555;SDS011;11956;53.184;8.578;2023-04-24T07:15:12;10.02;;;7.80;;
23555;SDS011;11956;53.184;8.578;2023-04-24T07:18:13;12.90;;;8.57;;
23555;SDS011;11956;53.184;8.578;2023-04-24T07:21:14;10.10;;;8.40;;
23555;SDS011;11956;53.184;8.578;2023-04-24T07:24:15;10.93;;;9.02;;
23555;SDS011;11956;53.184;8.578;2023-04-24T07:27:16;11.10;;;9.40;;
23555;SDS011;11956;53.184;8.578;2023-04-24T07:30:17;12.13;;;8.95;;
23555;SDS011;11956;53.184;8.578;2023-04-24T07:33:18;15.48;;;9.32;;
23555;SDS011;11956;53.184;8.578;2023-04-24T07:36:19;13.80;;;9.10;;
23555;SDS011;11956;53.184;8.578;2023-04-24T07:39:20;10.48;;;8.10;;
23555;SDS011;11956;53.184;8.578;2023-04-24T07:42:20;12.40;;;8.90;;
23555;SDS011;11956;53.184;8.578;2023-04-24T07:45:21;10.18;;;7.97;;
23555;SDS011;11956;53.184;8.578;2023-04-24T07:48:24;10.00;;;7.55;;
23555;SDS011;11956;53.184;8.578;2023-04-24T07:51:26;10.27;;;7.28;;
23555;SDS011;11956;53.184;8.578;2023-04-24T07:54:28;8.38;;;7.22;;
23555;SDS011;11956;53.184;8.578;2023-04-24T07:57:29;9.20;;;7.35;;
23555;SDS011;11956;53.184;8.578;2023-04-24T08:00:30;9.48;;;8.00;;
23555;SDS011;11956;53.184;8.578;2023-04-24T08:03:31;12.40;;;8.90;;
23555;SDS011;11956;53.184;8.578;2023-04-24T08:06:32;9.70;;;7.70;;
23555;SDS011;11956;53.184;8.578;2023-04-24T08:09:33;9.60;;;7.18;;
23555;SDS011;11956;53.184;8.578;2023-04-24T08:12:34;8.63;;;6.88;;
23555;SDS011;11956;53.184;8.578;2023-04-24T08:15:35;8.50;;;6.57;;
23555;SDS011;11956;53.184;8.578;2023-04-24T08:18:35;11.40;;;6.82;;
23555;SDS011;11956;53.184;8.578;2023-04-24T08:21:36;8.55;;;6.70;;
23555;SDS011;11956;53.184;8.578;2023-04-24T08:24:37;9.15;;;6.53;;
23555;SDS011;11956;53.184;8.578;2023-04-24T08:27:38;9.88;;;7.43;;
23555;SDS011;11956;53.184;8.578;2023-04-24T08:30:39;15.82;;;7.80;;
23555;SDS011;11956;53.184;8.578;2023-04-24T08:33:40;8.75;;;7.32;;
23555;SDS011;11956;53.184;8.578;2023-04-24T08:36:41;10.90;;;7.90;;
23555;SDS011;11956;53.184;8.578;2023-04-24T08:39:42;9.38;;;7.82;;
23555;SDS011;11956;53.184;8.578;2023-04-24T08:42:43;9.23;;;7.18;;
23555;SDS011;11956;53.184;8.578;2023-04-24T08:45:44;10.40;;;7.88;;
23555;SDS011;11956;53.184;8.578;2023-04-24T08:48:45;10.32;;;8.02;;
23555;SDS011;11956;53.184;8.578;2023-04-24T08:51:46;10.93;;;8.02;;
23555;SDS011;11956;53.184;8.578;2023-04-24T08:54:49;14.27;;;8.43;;
23555;SDS011;11956;53.184;8.578;2023-04-24T08:57:51;10.25;;;7.90;;
23555;SDS011;11956;53.184;8.578;2023-04-24T09:00:54;13.50;;;7.88;;
23555;SDS011;11956;53.184;8.578;2023-04-24T09:03:55;11.15;;;7.65;;
23555;SDS011;11956;53.184;8.578;2023-04-24T09:06:58;12.38;;;8.02;;
23555;SDS011;11956;53.184;8.578;2023-04-24T09:10:00;15.40;;;8.23;;
23555;SDS011;11956;53.184;8.578;2023-04-24T09:13:02;12.70;;;7.55;;
23555;SDS011;11956;53.184;8.578;2023-04-24T09:16:03;8.32;;;7.43;;
23555;SDS011;11956;53.184;8.578;2023-04-24T09:19:05;11.75;;;8.00;;
23555;SDS011;11956;53.184;8.578;2023-04-24T09:22:06;12.52;;;8.88;;
23555;SDS011;11956;53.184;8.578;2023-04-24T09:25:08;10.95;;;8.70;;
23555;SDS011;11956;53.184;8.578;2023-04-24T09:28:11;17.73;;;9.77;;
23555;SDS011;11956;53.184;8.578;2023-04-24T09:31:13;13.23;;;9.35;;
23555;SDS011;11956;53.184;8.578;2023-04-24T09:34:27;12.38;;;8.95;;
23555;SDS011;11956;53.184;8.578;2023-04-24T09:37:28;15.95;;;10.48;;
23555;SDS011;11956;53.184;8.578;2023-04-24T09:40:30;16.30;;;11.82;;
23555;SDS011;11956;53.184;8.578;2023-04-24T09:43:34;15.18;;;10.27;;
23555;SDS011;11956;53.184;8.578;2023-04-24T09:46:35;19.83;;;11.02;;
23555;SDS011;11956;53.184;8.578;2023-04-24T09:49:36;14.07;;;10.93;;
23555;SDS011;11956;53.184;8.578;2023-04-24T09:52:39;15.63;;;10.38;;
23555;SDS011;11956;53.184;8.578;2023-04-24T09:55:44;17.08;;;10.27;;
23555;SDS011;11956;53.184;8.578;2023-04-24T09:58:49;14.20;;;9.93;;
23555;SDS011;11956;53.184;8.578;2023-04-24T10:01:50;18.35;;;9.82;;
23555;SDS011;11956;53.184;8.578;2023-04-24T10:04:55;15.57;;;9.02;;
23555;SDS011;11956;53.184;8.578;2023-04-24T10:08:03;10.98;;;7.78;;
23555;SDS011;11956;53.184;8.578;2023-04-24T10:11:08;8.77;;;7.18;;
23555;SDS011;11956;53.184;8.578;2023-04-24T10:14:12;11.98;;;7.60;;
23555;SDS011;11956;53.184;8.578;2023-04-24T10:17:14;10.35;;;7.47;;
23555;SDS011;11956;53.184;8.578;2023-04-24T10:20:16;9.50;;;8.50;;
23555;SDS011;11956;53.184;8.578;2023-04-24T10:23:17;15.50;;;8.82;;
23555;SDS011;11956;53.184;8.578;2023-04-24T10:26:19;12.70;;;9.80;;
23555;SDS011;11956;53.184;8.578;2023-04-24T10:29:21;11.95;;;9.80;;
23555;SDS011;11956;53.184;8.578;2023-04-24T10:32:23;11.70;;;10.30;;
23555;SDS011;11956;53.184;8.578;2023-04-24T10:35:24;12.43;;;9.65;;
23555;SDS011;11956;53.184;8.578;2023-04-24T10:38:26;10.03;;;9.03;;
23555;SDS011;11956;53.184;8.578;2023-04-24T10:41:30;10.10;;;8.73;;
23555;SDS011;11956;53.184;8.578;2023-04-24T10:44:37;12.10;;;9.70;;
23555;SDS011;11956;53.184;8.578;2023-04-24T10:47:40;11.43;;;9.48;;
23555;SDS011;11956;53.184;8.578;2023-04-24T10:50:53;11.93;;;9.05;;
23555;SDS011;11956;53.184;8.578;2023-04-24T10:53:55;12.55;;;9.75;;
23555;SDS011;11956;53.184;8.578;2023-04-24T11:00:24;13.73;;;10.32;;
23555;SDS011;11956;53.184;8.578;2023-04-24T11:03:28;12.70;;;10.77;;
23555;SDS011;11956;53.184;8.578;2023-04-24T11:09:36;15.57;;;13.20;;
23555;SDS011;11956;53.184;8.578;2023-04-24T11:12:40;17.45;;;14.23;;
23555;SDS011;11956;53.184;8.578;2023-04-24T11:15:41;16.40;;;12.75;;
23555;SDS011;11956;53.184;8.578;2023-04-24T11:18:43;18.13;;;13.15;;
23555;SDS011;11956;53.184;8.578;2023-04-24T11:24:55;18.48;;;15.00;;
23555;SDS011;11956;53.184;8.578;2023-04-24T11:28:04;18.98;;;14.45;;
23555;SDS011;11956;53.184;8.578;2023-04-24T11:34:39;17.38;;;15.52;;
23555;SDS011;11956;53.184;8.578;2023-04-24T11:37:41;20.10;;;14.85;;
23555;SDS011;11956;53.184;8.578;2023-04-24T11:40:49;19.50;;;13.85;;
23555;SDS011;11956;53.184;8.578;2023-04-24T11:43:52;18.33;;;14.10;;
23555;SDS011;11956;53.184;8.578;2023-04-24T11:46:55;14.52;;;11.45;;
23555;SDS011;11956;53.184;8.578;2023-04-24T11:49:57;11.13;;;9.10;;
23555;SDS011;11956;53.184;8.578;2023-04-24T11:52:58;10.43;;;8.07;;
23555;SDS011;11956;53.184;8.578;2023-04-24T11:56:04;10.07;;;7.25;;
23555;SDS011;11956;53.184;8.578;2023-04-24T11:59:05;8.10;;;6.20;;
23555;SDS011;11956;53.184;8.578;2023-04-24T12:02:08;5.97;;;5.38;;
23555;SDS011;11956;53.184;8.578;2023-04-24T12:05:08;6.35;;;5.53;;
23555;SDS011;11956;53.184;8.578;2023-04-24T12:08:11;7.45;;;5.13;;
23555;SDS011;11956;53.184;8.578;2023-04-24T12:11:27;7.47;;;6.15;;
23555;SDS011;11956;53.184;8.578;2023-04-24T12:14:28;10.05;;;5.90;;
23555;SDS011;11956;53.184;8.578;2023-04-24T12:17:30;9.25;;;6.00;;
23555;SDS011;11956;53.184;8.578;2023-04-24T12:20:32;5.20;;;4.65;;
23555;SDS011;11956;53.184;8.578;2023-04-24T12:23:35;6.40;;;4.97;;
23555;SDS011;11956;53.184;8.578;2023-04-24T12:26:36;8.00;;;5.40;;
23555;SDS011;11956;53.184;8.578;2023-04-24T12:29:37;12.82;;;6.25;;
23555;SDS011;11956;53.184;8.578;2023-04-24T12:32:51;7.63;;;6.55;;
23555;SDS011;11956;53.184;8.578;2023-04-24T12:35:54;12.52;;;6.50;;
23555;SDS011;11956;53.184;8.578;2023-04-24T12:38:57;9.95;;;7.13;;
23555;SDS011;11956;53.184;8.578;2023-04-24T12:41:58;7.22;;;5.88;;
23555;SDS011;11956;53.184;8.578;2023-04-24T12:45:04;4.50;;;4.10;;
23555;SDS011;11956;53.184;8.578;2023-04-24T12:48:07;5.78;;;4.60;;
23555;SDS011;11956;53.184;8.578;2023-04-24T12:51:07;6.90;;;5.22;;
23555;SDS011;11956;53.184;8.578;2023-04-24T12:54:08;11.98;;;8.25;;
23555;SDS011;11956;53.184;8.578;2023-04-24T12:57:10;15.50;;;10.60;;
23555;SDS011;11956;53.184;8.578;2023-04-24T13:00:11;16.40;;;11.65;;
23555;SDS011;11956;53.184;8.578;2023-04-24T13:03:13;21.50;;;13.50;;
23555;SDS011;11956;53.184;8.578;2023-04-24T13:06:14;20.17;;;13.95;;
23555;SDS011;11956;53.184;8.578;2023-04-24T13:09:15;23.95;;;16.13;;
23555;SDS011;11956;53.184;8.578;2023-04-24T13:12:16;31.27;;;18.23;;
23555;SDS011;11956;53.184;8.578;2023-04-24T13:15:18;23.35;;;16.60;;
23555;SDS011;11956;53.184;8.578;2023-04-24T13:18:19;28.40;;;18.75;;
23555;SDS011;11956;53.184;8.578;2023-04-24T13:21:20;23.77;;;17.70;;
23555;SDS011;11956;53.184;8.578;2023-04-24T13:24:21;25.48;;;16.98;;
23555;SDS011;11956;53.184;8.578;2023-04-24T13:30:25;18.98;;;11.60;;
23555;SDS011;11956;53.184;8.578;2023-04-24T13:33:26;20.52;;;12.15;;
23555;SDS011;11956;53.184;8.578;2023-04-24T13:36:27;19.88;;;10.85;;
23555;SDS011;11956;53.184;8.578;2023-04-24T13:39:27;21.35;;;12.73;;
23555;SDS011;11956;53.184;8.578;2023-04-24T13:42:28;19.30;;;12.35;;
23555;SDS011;11956;53.184;8.578;2023-04-24T13:45:29;17.92;;;11.43;;
23555;SDS011;11956;53.184;8.578;2023-04-24T13:48:30;19.80;;;13.27;;
23555;SDS011;11956;53.184;8.578;2023-04-24T13:51:31;20.48;;;12.55;;
23555;SDS011;11956;53.184;8.578;2023-04-24T13:54:33;27.42;;;13.70;;
23555;SDS011;11956;53.184;8.578;2023-04-24T13:57:33;22.25;;;13.20;;
23555;SDS011;11956;53.184;8.578;2023-04-24T14:00:35;23.98;;;12.52;;
23555;SDS011;11956;53.184;8.578;2023-04-24T14:03:37;23.42;;;12.98;;
23555;SDS011;11956;53.184;8.578;2023-04-24T14:06:38;20.88;;;12.38;;
23555;SDS011;11956;53.184;8.578;2023-04-24T14:09:39;25.00;;;12.60;;
23555;SDS011;11956;53.184;8.578;2023-04-24T14:12:40;24.95;;;11.43;;
23555;SDS011;11956;53.184;8.578;2023-04-24T14:15:40;26.85;;;12.38;;
23555;SDS011;11956;53.184;8.578;2023-04-24T14:18:41;21.23;;;12.00;;
23555;SDS011;11956;53.184;8.578;2023-04-24T14:21:42;27.00;;;13.05;;
23555;SDS011;11956;53.184;8.578;2023-04-24T14:24:43;23.13;;;11.98;;
23555;SDS011;11956;53.184;8.578;2023-04-24T14:27:44;21.70;;;11.57;;
23555;SDS011;11956;53.184;8.578;2023-04-24T14:30:46;21.15;;;10.43;;
23555;SDS011;11956;53.184;8.578;2023-04-24T14:33:50;21.40;;;10.20;;
23555;SDS011;11956;53.184;8.578;2023-04-24T14:36:51;21.48;;;11.07;;
23555;SDS011;11956;53.184;8.578;2023-04-24T14:39:52;20.13;;;10.40;;
23555;SDS011;11956;53.184;8.578;2023-04-24T14:42:53;15.63;;;9.57;;
23555;SDS011;11956;53.184;8.578;2023-04-24T14:45:54;16.98;;;9.75;;
23555;SDS011;11956;53.184;8.578;2023-04-24T14:48:56;26.38;;;10.93;;
23555;SDS011;11956;53.184;8.578;2023-04-24T14:51:57;18.38;;;10.38;;
23555;SDS011;11956;53.184;8.578;2023-04-24T14:54:58;29.15;;;11.75;;
23555;SDS011;11956;53.184;8.578;2023-04-24T14:57:59;20.98;;;10.38;;
23555;SDS011;11956;53.184;8.578;2023-04-24T15:01:00;19.88;;;10.57;;
23555;SDS011;11956;53.184;8.578;2023-04-24T15:04:01;19.52;;;9.60;;
23555;SDS011;11956;53.184;8.578;2023-04-24T15:07:02;12.88;;;8.43;;
23555;SDS011;11956;53.184;8.578;2023-04-24T15:10:03;17.33;;;8.90;;
23555;SDS011;11956;53.184;8.578;2023-04-24T15:13:04;18.70;;;9.40;;
23555;SDS011;11956;53.184;8.578;2023-04-24T15:16:05;14.30;;;7.53;;
23555;SDS011;11956;53.184;8.578;2023-04-24T15:19:06;15.73;;;7.03;;
23555;SDS011;11956;53.184;8.578;2023-04-24T15:22:07;19.35;;;6.57;;
23555;SDS011;11956;53.184;8.578;2023-04-24T15:25:10;12.82;;;5.07;;
23555;SDS011;11956;53.184;8.578;2023-04-24T15:28:11;12.85;;;5.28;;
23555;SDS011;11956;53.184;8.578;2023-04-24T15:31:12;7.38;;;3.60;;
23555;SDS011;11956;53.184;8.578;2023-04-24T15:34:13;10.95;;;4.03;;
23555;SDS011;11956;53.184;8.578;2023-04-24T15:37:14;8.18;;;3.72;;
23555;SDS011;11956;53.184;8.578;2023-04-24T15:40:15;7.68;;;3.97;;
23555;SDS011;11956;53.184;8.578;2023-04-24T15:43:16;11.32;;;4.93;;
23555;SDS011;11956;53.184;8.578;2023-04-24T15:46:17;13.27;;;4.75;;
23555;SDS011;11956;53.184;8.578;2023-04-24T15:49:18;11.23;;;4.97;;
23555;SDS011;11956;53.184;8.578;2023-04-24T15:52:19;10.98;;;4.90;;
23555;SDS011;11956;53.184;8.578;2023-04-24T15:55:20;11.60;;;4.97;;
23555;SDS011;11956;53.184;8.578;2023-04-24T15:58:21;9.57;;;5.00;;
23555;SDS011;11956;53.184;8.578;2023-04-24T16:01:22;8.05;;;4.50;;
23555;SDS011;11956;53.184;8.578;2023-04-24T16:04:24;13.05;;;4.43;;
23555;SDS011;11956;53.184;8.578;2023-04-24T16:07:25;12.13;;;4.32;;
23555;SDS011;11956;53.184;8.578;2023-04-24T16:10:26;8.52;;;4.30;;
23555;SDS011;11956;53.184;8.578;2023-04-24T16:13:27;9.38;;;4.15;;
23555;SDS011;11956;53.184;8.578;2023-04-24T16:16:28;12.23;;;4.60;;
23555;SDS011;11956;53.184;8.578;2023-04-24T16:19:30;9.85;;;4.00;;
23555;SDS011;11956;53.184;8.578;2023-04-24T16:22:33;11.07;;;4.15;;
23555;SDS011;11956;53.184;8.578;2023-04-24T16:25:34;10.75;;;4.07;;
23555;SDS011;11956;53.184;8.578;2023-04-24T16:28:35;8.68;;;3.55;;
23555;SDS011;11956;53.184;8.578;2023-04-24T16:31:36;7.28;;;3.22;;
23555;SDS011;11956;53.184;8.578;2023-04-24T16:34:37;7.95;;;3.67;;
23555;SDS011;11956;53.184;8.578;2023-04-24T16:37:38;7.70;;;3.80;;
23555;SDS011;11956;53.184;8.578;2023-04-24T16:40:39;8.15;;;3.67;;
23555;SDS011;11956;53.184;8.578;2023-04-24T16:43:41;7.93;;;3.60;;
23555;SDS011;11956;53.184;8.578;2023-04-24T16:46:42;10.10;;;4.55;;
23555;SDS011;11956;53.184;8.578;2023-04-24T16:49:43;9.63;;;4.57;;
23555;SDS011;11956;53.184;8.578;2023-04-24T16:52:44;8.40;;;4.25;;
23555;SDS011;11956;53.184;8.578;2023-04-24T16:55:45;7.68;;;3.97;;
23555;SDS011;11956;53.184;8.578;2023-04-24T16:58:46;7.88;;;3.70;;
23555;SDS011;11956;53.184;8.578;2023-04-24T17:01:47;8.88;;;4.10;;
23555;SDS011;11956;53.184;8.578;2023-04-24T17:04:48;11.30;;;4.85;;
23555;SDS011;11956;53.184;8.578;2023-04-24T17:07:49;9.07;;;5.05;;
23555;SDS011;11956;53.184;8.578;2023-04-24T17:10:50;16.73;;;6.28;;
23555;SDS011;11956;53.184;8.578;2023-04-24T17:13:51;11.95;;;5.03;;
23555;SDS011;11956;53.184;8.578;2023-04-24T17:16:51;11.98;;;5.10;;
23555;SDS011;11956;53.184;8.578;2023-04-24T17:19:52;9.02;;;4.30;;
23555;SDS011;11956;53.184;8.578;2023-04-24T17:22:53;8.15;;;4.07;;
23555;SDS011;11956;53.184;8.578;2023-04-24T17:25:54;8.65;;;3.50;;
23555;SDS011;11956;53.184;8.578;2023-04-24T17:28:55;10.80;;;3.53;;
23555;SDS011;11956;53.184;8.578;2023-04-24T17:31:56;5.80;;;3.20;;
23555;SDS011;11956;53.184;8.578;2023-04-24T17:34:57;6.57;;;2.80;;
23555;SDS011;11956;53.184;8.578;2023-04-24T17:37:58;8.65;;;3.03;;
23555;SDS011;11956;53.184;8.578;2023-04-24T17:40:59;11.18;;;3.38;;
23555;SDS011;11956;53.184;8.578;2023-04-24T17:44:00;10.32;;;3.50;;
23555;SDS011;11956;53.184;8.578;2023-04-24T17:47:01;9.93;;;3.17;;
23555;SDS011;11956;53.184;8.578;2023-04-24T17:53:06;9.18;;;3.70;;
23555;SDS011;11956;53.184;8.578;2023-04-24T17:56:07;7.65;;;2.83;;
23555;SDS011;11956;53.184;8.578;2023-04-24T17:59:08;11.13;;;3.13;;
23555;SDS011;11956;53.184;8.578;2023-04-24T18:02:09;9.63;;;3.05;;
23555;SDS011;11956;53.184;8.578;2023-04-24T18:05:10;11.30;;;3.35;;
23555;SDS011;11956;53.184;8.578;2023-04-24T18:08:11;10.50;;;3.22;;
23555;SDS011;11956;53.184;8.578;2023-04-24T18:11:12;8.75;;;3.28;;
23555;SDS011;11956;53.184;8.578;2023-04-24T18:14:13;9.45;;;3.38;;
23555;SDS011;11956;53.184;8.578;2023-04-24T18:17:14;9.05;;;3.10;;
23555;SDS011;11956;53.184;8.578;2023-04-24T18:20:15;11.95;;;4.22;;
23555;SDS011;11956;53.184;8.578;2023-04-24T18:23:17;12.10;;;4.10;;
23555;SDS011;11956;53.184;8.578;2023-04-24T18:26:18;10.32;;;3.58;;
23555;SDS011;11956;53.184;8.578;2023-04-24T18:29:19;13.35;;;3.95;;
23555;SDS011;11956;53.184;8.578;2023-04-24T18:32:20;13.50;;;4.05;;